sensor_id;sensor_type;location;lat;lon;timestamp;P1;durP1;ratioP1;P2;durP2;ratioP2
70337;SDS011;57757;53.198;19.646;2023-03-26T00:01:40;10.40;;;4.20;;
70337;SDS011;57757;53.198;19.646;2023-03-26T00:04:13;10.40;;;3.60;;
70337;SDS011;57757;53.198;19.646;2023-03-26T00:06:40;12.10;;;4.20;;
70337;SDS011;57757;53.198;19.646;2023-03-26T00:09:09;10.20;;;3.50;;
70337;SDS011;57757;53.198;19.646;2023-03-26T00:11:39;12.20;;;3.60;;
70337;SDS011;57757;53.198;19.646;2023-03-26T00:14:08;10.80;;;4.30;;
70337;SDS011;57757;53.198;19.646;2023-03-26T00:16:43;11.30;;;4.00;;
70337;SDS011;57757;53.198;19.646;2023-03-26T00:19:11;11.10;;;4.40;;
70337;SDS011;57757;53.198;19.646;2023-03-26T00:21:40;10.40;;;4.30;;
70337;SDS011;57757;53.198;19.646;2023-03-26T00:24:09;10.70;;;4.50;;
70337;SDS011;57757;53.198;19.646;2023-03-26T00:26:41;11.20;;;4.40;;
70337;SDS011;57757;53.198;19.646;2023-03-26T00:29:09;9.70;;;4.00;;
70337;SDS011;57757;53.198;19.646;2023-03-26T00:31:39;9.30;;;3.70;;
70337;SDS011;57757;53.198;19.646;2023-03-26T00:34:07;10.50;;;3.90;;
70337;SDS011;57757;53.198;19.646;2023-03-26T00:36:36;9.80;;;3.60;;
70337;SDS011;57757;53.198;19.646;2023-03-26T00:39:04;11.80;;;4.30;;
70337;SDS011;57757;53.198;19.646;2023-03-26T00:41:32;9.10;;;2.70;;
70337;SDS011;57757;53.198;19.646;2023-03-26T00:44:03;8.80;;;2.60;;
70337;SDS011;57757;53.198;19.646;2023-03-26T00:46:31;9.50;;;3.00;;
70337;SDS011;57757;53.198;19.646;2023-03-26T00:48:59;8.20;;;2.50;;
70337;SDS011;57757;53.198;19.646;2023-03-26T00:51:28;11.10;;;3.00;;
70337;SDS011;57757;53.198;19.646;2023-03-26T00:53:56;8.40;;;2.50;;
70337;SDS011;57757;53.198;19.646;2023-03-26T00:56:24;9.40;;;3.20;;
70337;SDS011;57757;53.198;19.646;2023-03-26T00:58:52;8.50;;;3.40;;
70337;SDS011;57757;53.198;19.646;2023-03-26T01:01:24;10.50;;;4.10;;
70337;SDS011;57757;53.198;19.646;2023-03-26T01:03:56;11.10;;;4.50;;
70337;SDS011;57757;53.198;19.646;2023-03-26T01:06:36;9.40;;;3.20;;
70337;SDS011;57757;53.198;19.646;2023-03-26T01:09:16;7.90;;;2.70;;
70337;SDS011;57757;53.198;19.646;2023-03-26T01:11:45;8.40;;;3.20;;
70337;SDS011;57757;53.198;19.646;2023-03-26T01:14:16;11.60;;;4.40;;
70337;SDS011;57757;53.198;19.646;2023-03-26T01:16:48;11.60;;;3.50;;
70337;SDS011;57757;53.198;19.646;2023-03-26T01:19:24;13.40;;;3.90;;
70337;SDS011;57757;53.198;19.646;2023-03-26T01:21:56;12.10;;;3.20;;
70337;SDS011;57757;53.198;19.646;2023-03-26T01:24:25;11.70;;;3.70;;
70337;SDS011;57757;53.198;19.646;2023-03-26T01:27:03;10.20;;;3.20;;
70337;SDS011;57757;53.198;19.646;2023-03-26T01:40:47;9.40;;;3.80;;
70337;SDS011;57757;53.198;19.646;2023-03-26T01:43:27;10.20;;;3.90;;
70337;SDS011;57757;53.198;19.646;2023-03-26T01:45:58;10.70;;;4.10;;
70337;SDS011;57757;53.198;19.646;2023-03-26T01:48:32;9.00;;;2.90;;
70337;SDS011;57757;53.198;19.646;2023-03-26T01:51:03;11.70;;;3.50;;
70337;SDS011;57757;53.198;19.646;2023-03-26T01:53:32;9.50;;;3.60;;
70337;SDS011;57757;53.198;19.646;2023-03-26T01:58:41;13.40;;;5.30;;
70337;SDS011;57757;53.198;19.646;2023-03-26T02:01:19;13.00;;;4.10;;
70337;SDS011;57757;53.198;19.646;2023-03-26T02:03:55;11.90;;;3.70;;
70337;SDS011;57757;53.198;19.646;2023-03-26T02:06:42;12.00;;;3.60;;
70337;SDS011;57757;53.198;19.646;2023-03-26T02:09:13;8.20;;;3.40;;
70337;SDS011;57757;53.198;19.646;2023-03-26T02:11:50;11.40;;;3.80;;
70337;SDS011;57757;53.198;19.646;2023-03-26T02:14:18;11.60;;;4.80;;
70337;SDS011;57757;53.198;19.646;2023-03-26T02:16:45;10.90;;;4.50;;
70337;SDS011;57757;53.198;19.646;2023-03-26T02:19:14;10.30;;;4.00;;
70337;SDS011;57757;53.198;19.646;2023-03-26T02:21:42;11.80;;;4.10;;
70337;SDS011;57757;53.198;19.646;2023-03-26T02:24:09;12.50;;;4.50;;
70337;SDS011;57757;53.198;19.646;2023-03-26T02:26:37;9.80;;;3.20;;
70337;SDS011;57757;53.198;19.646;2023-03-26T02:29:05;10.50;;;3.60;;
70337;SDS011;57757;53.198;19.646;2023-03-26T02:31:32;9.30;;;3.30;;
70337;SDS011;57757;53.198;19.646;2023-03-26T02:34:02;9.80;;;3.40;;
70337;SDS011;57757;53.198;19.646;2023-03-26T02:36:29;14.30;;;5.60;;
70337;SDS011;57757;53.198;19.646;2023-03-26T02:38:57;10.40;;;4.70;;
70337;SDS011;57757;53.198;19.646;2023-03-26T02:41:26;11.00;;;4.90;;
70337;SDS011;57757;53.198;19.646;2023-03-26T02:43:53;10.60;;;4.40;;
70337;SDS011;57757;53.198;19.646;2023-03-26T02:46:21;10.30;;;3.90;;
70337;SDS011;57757;53.198;19.646;2023-03-26T02:48:49;10.00;;;3.70;;
70337;SDS011;57757;53.198;19.646;2023-03-26T02:51:17;9.10;;;3.60;;
70337;SDS011;57757;53.198;19.646;2023-03-26T02:53:45;11.50;;;3.70;;
70337;SDS011;57757;53.198;19.646;2023-03-26T02:56:13;8.70;;;3.30;;
70337;SDS011;57757;53.198;19.646;2023-03-26T02:58:41;8.90;;;3.50;;
70337;SDS011;57757;53.198;19.646;2023-03-26T03:01:09;9.20;;;3.80;;
70337;SDS011;57757;53.198;19.646;2023-03-26T03:03:36;9.80;;;3.70;;
70337;SDS011;57757;53.198;19.646;2023-03-26T03:06:04;9.50;;;3.70;;
70337;SDS011;57757;53.198;19.646;2023-03-26T03:08:31;8.90;;;3.80;;
70337;SDS011;57757;53.198;19.646;2023-03-26T03:11:01;10.70;;;3.90;;
70337;SDS011;57757;53.198;19.646;2023-03-26T03:13:36;10.60;;;3.90;;
70337;SDS011;57757;53.198;19.646;2023-03-26T03:16:04;9.50;;;3.50;;
70337;SDS011;57757;53.198;19.646;2023-03-26T03:18:33;11.90;;;5.00;;
70337;SDS011;57757;53.198;19.646;2023-03-26T03:21:02;11.10;;;4.70;;
70337;SDS011;57757;53.198;19.646;2023-03-26T03:23:30;10.70;;;4.80;;
70337;SDS011;57757;53.198;19.646;2023-03-26T03:25:58;8.40;;;3.50;;
70337;SDS011;57757;53.198;19.646;2023-03-26T03:28:27;10.40;;;3.60;;
70337;SDS011;57757;53.198;19.646;2023-03-26T03:30:54;12.20;;;3.70;;
70337;SDS011;57757;53.198;19.646;2023-03-26T03:33:23;10.50;;;4.00;;
70337;SDS011;57757;53.198;19.646;2023-03-26T03:35:51;11.00;;;3.90;;
70337;SDS011;57757;53.198;19.646;2023-03-26T03:38:19;10.30;;;3.90;;
70337;SDS011;57757;53.198;19.646;2023-03-26T03:40:47;10.20;;;3.50;;
70337;SDS011;57757;53.198;19.646;2023-03-26T03:43:14;10.30;;;4.30;;
70337;SDS011;57757;53.198;19.646;2023-03-26T03:45:42;9.10;;;3.50;;
70337;SDS011;57757;53.198;19.646;2023-03-26T03:48:09;10.00;;;3.50;;
70337;SDS011;57757;53.198;19.646;2023-03-26T03:50:37;9.40;;;4.00;;
70337;SDS011;57757;53.198;19.646;2023-03-26T03:53:04;9.10;;;3.50;;
70337;SDS011;57757;53.198;19.646;2023-03-26T03:55:32;8.00;;;3.20;;
70337;SDS011;57757;53.198;19.646;2023-03-26T03:58:00;11.30;;;4.40;;
70337;SDS011;57757;53.198;19.646;2023-03-26T04:00:27;9.80;;;3.70;;
70337;SDS011;57757;53.198;19.646;2023-03-26T04:02:56;8.00;;;3.30;;
70337;SDS011;57757;53.198;19.646;2023-03-26T04:05:25;10.20;;;3.60;;
70337;SDS011;57757;53.198;19.646;2023-03-26T04:07:52;11.70;;;3.60;;
70337;SDS011;57757;53.198;19.646;2023-03-26T04:10:20;9.30;;;3.60;;
70337;SDS011;57757;53.198;19.646;2023-03-26T04:12:47;10.50;;;3.80;;
70337;SDS011;57757;53.198;19.646;2023-03-26T04:15:15;12.00;;;4.20;;
70337;SDS011;57757;53.198;19.646;2023-03-26T04:17:43;13.20;;;4.30;;
70337;SDS011;57757;53.198;19.646;2023-03-26T04:20:11;9.60;;;3.40;;
70337;SDS011;57757;53.198;19.646;2023-03-26T04:22:42;11.20;;;3.50;;
70337;SDS011;57757;53.198;19.646;2023-03-26T04:25:11;8.80;;;3.80;;
70337;SDS011;57757;53.198;19.646;2023-03-26T04:27:39;9.80;;;3.50;;
70337;SDS011;57757;53.198;19.646;2023-03-26T04:30:10;11.00;;;5.50;;
70337;SDS011;57757;53.198;19.646;2023-03-26T04:32:46;10.90;;;4.70;;
70337;SDS011;57757;53.198;19.646;2023-03-26T04:35:15;10.50;;;4.50;;
70337;SDS011;57757;53.198;19.646;2023-03-26T04:37:44;9.10;;;4.60;;
70337;SDS011;57757;53.198;19.646;2023-03-26T04:40:14;11.20;;;5.30;;
70337;SDS011;57757;53.198;19.646;2023-03-26T04:42:47;9.30;;;4.20;;
70337;SDS011;57757;53.198;19.646;2023-03-26T04:45:15;10.00;;;4.40;;
70337;SDS011;57757;53.198;19.646;2023-03-26T04:47:48;13.30;;;6.10;;
70337;SDS011;57757;53.198;19.646;2023-03-26T04:50:17;9.60;;;4.00;;
70337;SDS011;57757;53.198;19.646;2023-03-26T04:52:44;11.30;;;4.50;;
70337;SDS011;57757;53.198;19.646;2023-03-26T04:55:16;11.30;;;4.10;;
70337;SDS011;57757;53.198;19.646;2023-03-26T04:57:52;25.30;;;8.70;;
70337;SDS011;57757;53.198;19.646;2023-03-26T05:00:22;16.50;;;7.50;;
70337;SDS011;57757;53.198;19.646;2023-03-26T05:02:51;13.00;;;6.20;;
70337;SDS011;57757;53.198;19.646;2023-03-26T05:05:22;13.80;;;5.90;;
70337;SDS011;57757;53.198;19.646;2023-03-26T05:07:51;21.70;;;8.20;;
70337;SDS011;57757;53.198;19.646;2023-03-26T05:10:19;14.40;;;4.90;;
70337;SDS011;57757;53.198;19.646;2023-03-26T05:12:49;16.00;;;6.70;;
70337;SDS011;57757;53.198;19.646;2023-03-26T05:15:16;14.20;;;5.70;;
70337;SDS011;57757;53.198;19.646;2023-03-26T05:17:44;39.50;;;12.10;;
70337;SDS011;57757;53.198;19.646;2023-03-26T05:20:14;11.90;;;5.00;;
70337;SDS011;57757;53.198;19.646;2023-03-26T05:22:48;12.50;;;5.10;;
70337;SDS011;57757;53.198;19.646;2023-03-26T05:25:16;29.90;;;8.20;;
70337;SDS011;57757;53.198;19.646;2023-03-26T05:27:44;16.10;;;5.10;;
70337;SDS011;57757;53.198;19.646;2023-03-26T05:30:13;17.00;;;6.40;;
70337;SDS011;57757;53.198;19.646;2023-03-26T05:32:42;24.60;;;9.00;;
70337;SDS011;57757;53.198;19.646;2023-03-26T05:35:10;28.70;;;8.60;;
70337;SDS011;57757;53.198;19.646;2023-03-26T05:37:39;32.00;;;8.80;;
70337;SDS011;57757;53.198;19.646;2023-03-26T05:40:06;30.90;;;8.90;;
70337;SDS011;57757;53.198;19.646;2023-03-26T05:42:40;26.20;;;8.70;;
70337;SDS011;57757;53.198;19.646;2023-03-26T05:45:09;14.40;;;5.30;;
70337;SDS011;57757;53.198;19.646;2023-03-26T05:47:38;18.50;;;6.50;;
70337;SDS011;57757;53.198;19.646;2023-03-26T05:50:07;14.60;;;6.50;;
70337;SDS011;57757;53.198;19.646;2023-03-26T05:52:35;24.80;;;7.60;;
70337;SDS011;57757;53.198;19.646;2023-03-26T05:55:03;24.40;;;7.20;;
70337;SDS011;57757;53.198;19.646;2023-03-26T05:57:31;40.00;;;11.40;;
70337;SDS011;57757;53.198;19.646;2023-03-26T05:59:58;13.00;;;5.30;;
70337;SDS011;57757;53.198;19.646;2023-03-26T06:02:26;12.90;;;6.60;;
70337;SDS011;57757;53.198;19.646;2023-03-26T06:04:55;11.80;;;5.90;;
70337;SDS011;57757;53.198;19.646;2023-03-26T06:07:23;20.10;;;7.10;;
70337;SDS011;57757;53.198;19.646;2023-03-26T06:09:53;14.40;;;5.90;;
70337;SDS011;57757;53.198;19.646;2023-03-26T06:12:20;18.20;;;6.80;;
70337;SDS011;57757;53.198;19.646;2023-03-26T06:14:48;16.30;;;8.00;;
70337;SDS011;57757;53.198;19.646;2023-03-26T06:17:17;27.40;;;9.20;;
70337;SDS011;57757;53.198;19.646;2023-03-26T06:19:46;25.50;;;8.80;;
70337;SDS011;57757;53.198;19.646;2023-03-26T06:22:14;15.30;;;6.80;;
70337;SDS011;57757;53.198;19.646;2023-03-26T06:24:41;10.80;;;5.10;;
70337;SDS011;57757;53.198;19.646;2023-03-26T06:27:09;13.70;;;5.40;;
70337;SDS011;57757;53.198;19.646;2023-03-26T06:29:37;56.20;;;13.70;;
70337;SDS011;57757;53.198;19.646;2023-03-26T06:32:04;16.40;;;6.80;;
70337;SDS011;57757;53.198;19.646;2023-03-26T06:34:46;14.70;;;6.40;;
70337;SDS011;57757;53.198;19.646;2023-03-26T06:37:14;14.40;;;6.00;;
70337;SDS011;57757;53.198;19.646;2023-03-26T06:39:42;17.80;;;8.50;;
70337;SDS011;57757;53.198;19.646;2023-03-26T06:42:10;19.10;;;7.60;;
70337;SDS011;57757;53.198;19.646;2023-03-26T06:44:38;16.60;;;6.40;;
70337;SDS011;57757;53.198;19.646;2023-03-26T06:47:05;19.40;;;8.00;;
70337;SDS011;57757;53.198;19.646;2023-03-26T06:49:33;15.20;;;6.50;;
70337;SDS011;57757;53.198;19.646;2023-03-26T06:52:01;12.20;;;4.20;;
70337;SDS011;57757;53.198;19.646;2023-03-26T06:54:29;11.10;;;4.50;;
70337;SDS011;57757;53.198;19.646;2023-03-26T06:56:57;11.60;;;4.00;;
70337;SDS011;57757;53.198;19.646;2023-03-26T06:59:26;12.30;;;5.10;;
70337;SDS011;57757;53.198;19.646;2023-03-26T07:01:53;13.80;;;5.30;;
70337;SDS011;57757;53.198;19.646;2023-03-26T07:04:21;15.40;;;5.50;;
70337;SDS011;57757;53.198;19.646;2023-03-26T07:06:49;17.30;;;7.40;;
70337;SDS011;57757;53.198;19.646;2023-03-26T07:09:16;16.30;;;6.70;;
70337;SDS011;57757;53.198;19.646;2023-03-26T07:11:44;12.70;;;5.50;;
70337;SDS011;57757;53.198;19.646;2023-03-26T07:14:11;17.00;;;7.10;;
70337;SDS011;57757;53.198;19.646;2023-03-26T07:16:39;13.60;;;5.80;;
70337;SDS011;57757;53.198;19.646;2023-03-26T07:19:07;12.60;;;6.00;;
70337;SDS011;57757;53.198;19.646;2023-03-26T07:21:34;19.30;;;8.80;;
70337;SDS011;57757;53.198;19.646;2023-03-26T07:24:02;19.10;;;8.50;;
70337;SDS011;57757;53.198;19.646;2023-03-26T07:26:34;20.50;;;8.20;;
70337;SDS011;57757;53.198;19.646;2023-03-26T07:29:14;19.40;;;8.60;;
70337;SDS011;57757;53.198;19.646;2023-03-26T07:34:36;12.70;;;5.60;;
70337;SDS011;57757;53.198;19.646;2023-03-26T07:37:13;20.00;;;8.10;;
70337;SDS011;57757;53.198;19.646;2023-03-26T07:40:02;18.40;;;7.80;;
70337;SDS011;57757;53.198;19.646;2023-03-26T07:45:41;21.40;;;9.10;;
70337;SDS011;57757;53.198;19.646;2023-03-26T07:48:18;13.00;;;4.80;;
70337;SDS011;57757;53.198;19.646;2023-03-26T07:50:54;17.30;;;6.40;;
70337;SDS011;57757;53.198;19.646;2023-03-26T07:53:23;15.20;;;6.00;;
70337;SDS011;57757;53.198;19.646;2023-03-26T08:07:10;27.50;;;10.50;;
70337;SDS011;57757;53.198;19.646;2023-03-26T08:31:55;120.40;;;55.40;;
70337;SDS011;57757;53.198;19.646;2023-03-26T08:34:28;43.30;;;13.90;;
70337;SDS011;57757;53.198;19.646;2023-03-26T08:36:55;26.90;;;7.40;;
70337;SDS011;57757;53.198;19.646;2023-03-26T08:39:23;21.90;;;5.70;;
70337;SDS011;57757;53.198;19.646;2023-03-26T08:55:52;17.30;;;5.20;;
70337;SDS011;57757;53.198;19.646;2023-03-26T09:12:39;17.40;;;5.70;;
70337;SDS011;57757;53.198;19.646;2023-03-26T09:18:34;12.90;;;4.30;;
70337;SDS011;57757;53.198;19.646;2023-03-26T09:21:15;16.30;;;5.60;;
70337;SDS011;57757;53.198;19.646;2023-03-26T09:38:30;12.80;;;4.70;;
70337;SDS011;57757;53.198;19.646;2023-03-26T09:49:25;7.90;;;2.70;;
70337;SDS011;57757;53.198;19.646;2023-03-26T09:54:58;13.70;;;5.40;;
70337;SDS011;57757;53.198;19.646;2023-03-26T10:00:22;19.60;;;6.20;;
70337;SDS011;57757;53.198;19.646;2023-03-26T10:19:41;12.80;;;3.80;;
70337;SDS011;57757;53.198;19.646;2023-03-26T10:45:35;24.70;;;5.50;;
70337;SDS011;57757;53.198;19.646;2023-03-26T10:48:18;15.50;;;4.20;;
70337;SDS011;57757;53.198;19.646;2023-03-26T10:53:53;18.90;;;4.30;;
70337;SDS011;57757;53.198;19.646;2023-03-26T10:56:31;13.70;;;3.70;;
70337;SDS011;57757;53.198;19.646;2023-03-26T10:59:06;20.80;;;5.70;;
70337;SDS011;57757;53.198;19.646;2023-03-26T11:04:30;15.30;;;4.20;;
70337;SDS011;57757;53.198;19.646;2023-03-26T11:07:21;17.70;;;4.20;;
70337;SDS011;57757;53.198;19.646;2023-03-26T11:10:01;15.80;;;5.20;;
70337;SDS011;57757;53.198;19.646;2023-03-26T11:32:44;7.20;;;2.50;;
70337;SDS011;57757;53.198;19.646;2023-03-26T11:35:20;10.00;;;3.80;;
70337;SDS011;57757;53.198;19.646;2023-03-26T11:38:17;16.20;;;5.50;;
70337;SDS011;57757;53.198;19.646;2023-03-26T11:40:51;10.50;;;3.80;;
70337;SDS011;57757;53.198;19.646;2023-03-26T11:43:25;6.80;;;2.00;;
70337;SDS011;57757;53.198;19.646;2023-03-26T11:45:59;10.00;;;3.30;;
70337;SDS011;57757;53.198;19.646;2023-03-26T11:48:39;11.20;;;3.80;;
70337;SDS011;57757;53.198;19.646;2023-03-26T11:51:17;6.80;;;2.40;;
70337;SDS011;57757;53.198;19.646;2023-03-26T11:53:52;6.50;;;2.20;;
70337;SDS011;57757;53.198;19.646;2023-03-26T11:59:28;9.30;;;2.60;;
70337;SDS011;57757;53.198;19.646;2023-03-26T12:05:01;8.80;;;2.50;;
70337;SDS011;57757;53.198;19.646;2023-03-26T12:07:46;10.40;;;2.80;;
70337;SDS011;57757;53.198;19.646;2023-03-26T12:16:14;8.30;;;3.10;;
70337;SDS011;57757;53.198;19.646;2023-03-26T12:18:45;6.50;;;2.10;;
70337;SDS011;57757;53.198;19.646;2023-03-26T12:21:24;7.30;;;2.10;;
70337;SDS011;57757;53.198;19.646;2023-03-26T12:24:00;8.70;;;2.40;;
70337;SDS011;57757;53.198;19.646;2023-03-26T12:29:12;16.60;;;5.80;;
70337;SDS011;57757;53.198;19.646;2023-03-26T12:34:17;11.90;;;3.30;;
70337;SDS011;57757;53.198;19.646;2023-03-26T12:36:51;10.30;;;2.70;;
70337;SDS011;57757;53.198;19.646;2023-03-26T12:39:26;8.50;;;2.50;;
70337;SDS011;57757;53.198;19.646;2023-03-26T12:42:31;7.60;;;2.40;;
70337;SDS011;57757;53.198;19.646;2023-03-26T12:45:20;13.60;;;4.50;;
70337;SDS011;57757;53.198;19.646;2023-03-26T12:47:51;18.00;;;6.30;;
70337;SDS011;57757;53.198;19.646;2023-03-26T12:50:31;11.70;;;4.30;;
70337;SDS011;57757;53.198;19.646;2023-03-26T12:55:52;9.00;;;2.60;;
70337;SDS011;57757;53.198;19.646;2023-03-26T13:06:37;24.80;;;10.60;;
70337;SDS011;57757;53.198;19.646;2023-03-26T13:15:26;6.90;;;1.90;;
70337;SDS011;57757;53.198;19.646;2023-03-26T13:20:53;7.50;;;2.20;;
70337;SDS011;57757;53.198;19.646;2023-03-26T13:38:05;13.20;;;5.10;;
70337;SDS011;57757;53.198;19.646;2023-03-26T13:40:44;10.10;;;4.10;;
70337;SDS011;57757;53.198;19.646;2023-03-26T13:48:48;16.10;;;5.40;;
70337;SDS011;57757;53.198;19.646;2023-03-26T13:56:55;7.10;;;1.70;;
70337;SDS011;57757;53.198;19.646;2023-03-26T13:59:36;11.90;;;3.30;;
70337;SDS011;57757;53.198;19.646;2023-03-26T14:02:16;9.20;;;2.40;;
70337;SDS011;57757;53.198;19.646;2023-03-26T14:04:46;8.90;;;2.20;;
70337;SDS011;57757;53.198;19.646;2023-03-26T14:07:26;9.60;;;2.60;;
70337;SDS011;57757;53.198;19.646;2023-03-26T14:10:02;9.70;;;3.40;;
70337;SDS011;57757;53.198;19.646;2023-03-26T14:46:32;6.50;;;2.50;;
70337;SDS011;57757;53.198;19.646;2023-03-26T14:51:59;6.50;;;1.70;;
70337;SDS011;57757;53.198;19.646;2023-03-26T14:54:43;11.30;;;4.80;;
70337;SDS011;57757;53.198;19.646;2023-03-26T15:20:38;24.50;;;8.00;;
70337;SDS011;57757;53.198;19.646;2023-03-26T15:37:33;6.90;;;2.30;;
70337;SDS011;57757;53.198;19.646;2023-03-26T15:45:45;9.10;;;3.70;;
70337;SDS011;57757;53.198;19.646;2023-03-26T15:48:30;8.40;;;3.80;;
70337;SDS011;57757;53.198;19.646;2023-03-26T16:02:38;18.90;;;9.20;;
70337;SDS011;57757;53.198;19.646;2023-03-26T16:10:57;28.10;;;14.70;;
70337;SDS011;57757;53.198;19.646;2023-03-26T16:13:35;50.30;;;23.90;;
70337;SDS011;57757;53.198;19.646;2023-03-26T16:18:54;21.90;;;9.00;;
70337;SDS011;57757;53.198;19.646;2023-03-26T16:24:34;22.80;;;11.10;;
70337;SDS011;57757;53.198;19.646;2023-03-26T16:37:45;25.40;;;11.20;;
70337;SDS011;57757;53.198;19.646;2023-03-26T17:02:34;35.80;;;13.70;;
70337;SDS011;57757;53.198;19.646;2023-03-26T17:08:06;38.20;;;17.00;;
70337;SDS011;57757;53.198;19.646;2023-03-26T17:10:39;101.60;;;34.20;;
70337;SDS011;57757;53.198;19.646;2023-03-26T17:14:02;98.20;;;34.00;;
70337;SDS011;57757;53.198;19.646;2023-03-26T17:16:08;215.70;;;78.30;;
70337;SDS011;57757;53.198;19.646;2023-03-26T17:18:55;92.30;;;37.80;;
70337;SDS011;57757;53.198;19.646;2023-03-26T17:32:57;23.80;;;9.20;;
70337;SDS011;57757;53.198;19.646;2023-03-26T17:49:10;38.90;;;14.10;;
70337;SDS011;57757;53.198;19.646;2023-03-26T17:51:45;48.20;;;15.90;;
70337;SDS011;57757;53.198;19.646;2023-03-26T17:57:55;70.80;;;22.50;;
70337;SDS011;57757;53.198;19.646;2023-03-26T18:00:24;74.80;;;24.90;;
70337;SDS011;57757;53.198;19.646;2023-03-26T18:03:13;38.60;;;13.00;;
70337;SDS011;57757;53.198;19.646;2023-03-26T18:05:47;45.80;;;16.30;;
70337;SDS011;57757;53.198;19.646;2023-03-26T18:11:24;42.00;;;15.50;;
70337;SDS011;57757;53.198;19.646;2023-03-26T18:16:52;47.50;;;14.60;;
70337;SDS011;57757;53.198;19.646;2023-03-26T18:19:25;36.80;;;11.10;;
70337;SDS011;57757;53.198;19.646;2023-03-26T18:21:58;51.50;;;18.40;;
70337;SDS011;57757;53.198;19.646;2023-03-26T18:24:31;34.20;;;10.10;;
70337;SDS011;57757;53.198;19.646;2023-03-26T18:27:04;41.50;;;12.40;;
70337;SDS011;57757;53.198;19.646;2023-03-26T18:29:42;64.90;;;22.90;;
70337;SDS011;57757;53.198;19.646;2023-03-26T18:34:44;85.00;;;24.80;;
70337;SDS011;57757;53.198;19.646;2023-03-26T18:37:20;84.10;;;31.60;;
70337;SDS011;57757;53.198;19.646;2023-03-26T18:42:39;49.30;;;18.80;;
70337;SDS011;57757;53.198;19.646;2023-03-26T18:48:02;93.30;;;35.60;;
70337;SDS011;57757;53.198;19.646;2023-03-26T18:50:38;49.20;;;18.70;;
70337;SDS011;57757;53.198;19.646;2023-03-26T18:53:13;37.50;;;14.30;;
70337;SDS011;57757;53.198;19.646;2023-03-26T18:55:44;27.40;;;10.80;;
70337;SDS011;57757;53.198;19.646;2023-03-26T19:01:05;47.40;;;17.60;;
70337;SDS011;57757;53.198;19.646;2023-03-26T19:03:50;43.80;;;16.50;;
70337;SDS011;57757;53.198;19.646;2023-03-26T19:06:20;45.20;;;17.40;;
70337;SDS011;57757;53.198;19.646;2023-03-26T19:08:49;50.30;;;20.60;;
70337;SDS011;57757;53.198;19.646;2023-03-26T19:11:18;49.70;;;20.90;;
70337;SDS011;57757;53.198;19.646;2023-03-26T19:13:56;52.90;;;19.70;;
70337;SDS011;57757;53.198;19.646;2023-03-26T19:16:26;59.60;;;21.70;;
70337;SDS011;57757;53.198;19.646;2023-03-26T19:19:01;69.20;;;23.20;;
70337;SDS011;57757;53.198;19.646;2023-03-26T19:21:32;61.10;;;20.20;;
70337;SDS011;57757;53.198;19.646;2023-03-26T19:24:02;63.20;;;22.20;;
70337;SDS011;57757;53.198;19.646;2023-03-26T19:26:32;80.10;;;31.90;;
70337;SDS011;57757;53.198;19.646;2023-03-26T19:29:02;211.90;;;98.10;;
70337;SDS011;57757;53.198;19.646;2023-03-26T19:34:02;89.70;;;33.70;;
70337;SDS011;57757;53.198;19.646;2023-03-26T19:36:49;74.70;;;25.50;;
70337;SDS011;57757;53.198;19.646;2023-03-26T19:39:25;62.20;;;24.60;;
70337;SDS011;57757;53.198;19.646;2023-03-26T19:42:16;54.70;;;25.00;;
70337;SDS011;57757;53.198;19.646;2023-03-26T19:44:50;43.00;;;21.30;;
70337;SDS011;57757;53.198;19.646;2023-03-26T19:47:19;75.50;;;24.30;;
70337;SDS011;57757;53.198;19.646;2023-03-26T19:55:51;223.60;;;69.20;;
70337;SDS011;57757;53.198;19.646;2023-03-26T19:58:19;150.40;;;44.80;;
70337;SDS011;57757;53.198;19.646;2023-03-26T20:00:47;288.80;;;74.20;;
70337;SDS011;57757;53.198;19.646;2023-03-26T20:03:15;126.20;;;39.20;;
70337;SDS011;57757;53.198;19.646;2023-03-26T20:05:49;109.70;;;43.80;;
70337;SDS011;57757;53.198;19.646;2023-03-26T20:08:18;106.30;;;43.10;;
70337;SDS011;57757;53.198;19.646;2023-03-26T20:10:58;87.30;;;34.90;;
70337;SDS011;57757;53.198;19.646;2023-03-26T20:13:26;58.20;;;25.30;;
70337;SDS011;57757;53.198;19.646;2023-03-26T20:16:03;63.60;;;23.50;;
70337;SDS011;57757;53.198;19.646;2023-03-26T20:18:41;66.50;;;24.20;;
70337;SDS011;57757;53.198;19.646;2023-03-26T20:21:10;58.30;;;21.60;;
70337;SDS011;57757;53.198;19.646;2023-03-26T20:23:39;147.90;;;51.30;;
70337;SDS011;57757;53.198;19.646;2023-03-26T20:26:09;123.20;;;45.50;;
70337;SDS011;57757;53.198;19.646;2023-03-26T20:28:41;78.70;;;29.50;;
70337;SDS011;57757;53.198;19.646;2023-03-26T20:31:18;80.00;;;28.90;;
70337;SDS011;57757;53.198;19.646;2023-03-26T20:33:49;113.50;;;34.80;;
70337;SDS011;57757;53.198;19.646;2023-03-26T20:36:23;95.60;;;31.90;;
70337;SDS011;57757;53.198;19.646;2023-03-26T20:39:04;41.80;;;17.30;;
70337;SDS011;57757;53.198;19.646;2023-03-26T20:41:32;32.10;;;13.10;;
70337;SDS011;57757;53.198;19.646;2023-03-26T20:44:09;36.90;;;13.20;;
70337;SDS011;57757;53.198;19.646;2023-03-26T20:46:44;37.20;;;13.50;;
70337;SDS011;57757;53.198;19.646;2023-03-26T20:49:14;42.60;;;13.80;;
70337;SDS011;57757;53.198;19.646;2023-03-26T20:51:43;32.10;;;11.90;;
70337;SDS011;57757;53.198;19.646;2023-03-26T20:54:17;21.00;;;7.60;;
70337;SDS011;57757;53.198;19.646;2023-03-26T20:56:50;20.50;;;6.90;;
70337;SDS011;57757;53.198;19.646;2023-03-26T20:59:21;18.00;;;7.70;;
70337;SDS011;57757;53.198;19.646;2023-03-26T21:01:53;18.20;;;6.80;;
70337;SDS011;57757;53.198;19.646;2023-03-26T21:04:24;17.60;;;7.00;;
70337;SDS011;57757;53.198;19.646;2023-03-26T21:06:52;25.40;;;8.20;;
70337;SDS011;57757;53.198;19.646;2023-03-26T21:09:30;24.60;;;7.30;;
70337;SDS011;57757;53.198;19.646;2023-03-26T21:14:37;51.60;;;11.00;;
70337;SDS011;57757;53.198;19.646;2023-03-26T21:17:13;107.10;;;21.10;;
70337;SDS011;57757;53.198;19.646;2023-03-26T21:19:44;38.90;;;9.40;;
70337;SDS011;57757;53.198;19.646;2023-03-26T21:27:53;26.50;;;6.20;;
70337;SDS011;57757;53.198;19.646;2023-03-26T21:30:27;17.70;;;4.80;;
70337;SDS011;57757;53.198;19.646;2023-03-26T21:32:55;30.90;;;7.00;;
70337;SDS011;57757;53.198;19.646;2023-03-26T21:35:23;20.90;;;5.40;;
70337;SDS011;57757;53.198;19.646;2023-03-26T21:37:51;30.70;;;7.20;;
70337;SDS011;57757;53.198;19.646;2023-03-26T21:40:21;22.80;;;5.30;;
70337;SDS011;57757;53.198;19.646;2023-03-26T21:42:50;23.60;;;4.90;;
70337;SDS011;57757;53.198;19.646;2023-03-26T21:45:20;22.50;;;5.70;;
70337;SDS011;57757;53.198;19.646;2023-03-26T21:47:48;46.20;;;17.30;;
70337;SDS011;57757;53.198;19.646;2023-03-26T21:50:17;15.20;;;5.10;;
70337;SDS011;57757;53.198;19.646;2023-03-26T21:52:48;14.70;;;5.30;;
70337;SDS011;57757;53.198;19.646;2023-03-26T21:55:19;15.10;;;4.80;;
70337;SDS011;57757;53.198;19.646;2023-03-26T22:00:16;16.50;;;4.00;;
70337;SDS011;57757;53.198;19.646;2023-03-26T22:05:16;14.80;;;3.60;;
70337;SDS011;57757;53.198;19.646;2023-03-26T22:10:33;25.70;;;5.40;;
70337;SDS011;57757;53.198;19.646;2023-03-26T22:13:01;26.30;;;5.40;;
70337;SDS011;57757;53.198;19.646;2023-03-26T22:15:28;19.60;;;4.10;;
70337;SDS011;57757;53.198;19.646;2023-03-26T22:18:01;34.80;;;7.50;;
70337;SDS011;57757;53.198;19.646;2023-03-26T22:20:30;48.80;;;11.40;;